Time;durP1;ratioP1;P1;durP2;ratioP2;P2;SDS_P1;SDS_P2;PMS_P1;PMS_P2;Temp;Humidity;BMP_temperature;BMP_pressure;BME280_temperature;BME280_humidity;BME280_pressure;Samples;Min_cycle;Max_cycle;Signal;HPM_P1;HPM_P2
2023/12/08 00:00:46;;;;;;;14.95;9.63;;;;;;;;;;5098506;28;20037;-77
2023/12/08 00:03:13;;;;;;;15.77;10.60;;;;;;;;;;5088713;28;20051;-76
2023/12/08 00:05:39;;;;;;;17.35;10.70;;;;;;;;;;5077789;28;20042;-76
2023/12/08 00:08:05;;;;;;;15.73;10.18;;;;;;;;;;5071376;28;20041;-77
2023/12/08 00:10:31;;;;;;;16.17;9.55;;;;;;;;;;5083680;28;20189;-77
2023/12/08 00:12:57;;;;;;;17.13;10.07;;;;;;;;;;5091913;28;20051;-77
2023/12/08 00:15:23;;;;;;;15.15;10.05;;;;;;;;;;5074876;28;20445;-77
2023/12/08 00:17:49;;;;;;;18.40;9.98;;;;;;;;;;5091587;28;20040;-76
2023/12/08 00:20:16;;;;;;;16.30;10.27;;;;;;;;;;5091063;28;20044;-77
2023/12/08 00:22:42;;;;;;;18.17;10.05;;;;;;;;;;5091527;28;20048;-77
2023/12/08 00:25:08;;;;;;;14.23;8.85;;;;;;;;;;5074854;28;20426;-76
2023/12/08 00:27:34;;;;;;;15.18;9.02;;;;;;;;;;5091443;28;20048;-77
2023/12/08 00:30:00;;;;;;;15.50;9.40;;;;;;;;;;5091367;28;20044;-77
2023/12/08 00:32:26;;;;;;;16.80;9.80;;;;;;;;;;5074263;28;20036;-76
2023/12/08 00:34:53;;;;;;;19.50;10.52;;;;;;;;;;5091448;28;20156;-76
2023/12/08 00:37:21;;;;;;;14.75;9.27;;;;;;;;;;5074161;28;20079;-76
2023/12/08 00:39:47;;;;;;;15.63;10.05;;;;;;;;;;5091487;28;20044;-76
2023/12/08 00:42:13;;;;;;;15.18;9.50;;;;;;;;;;5091087;28;20092;-77
2023/12/08 00:44:39;;;;;;;13.82;9.25;;;;;;;;;;5091210;28;20139;-76
2023/12/08 00:47:05;;;;;;;16.30;8.55;;;;;;;;;;5091215;28;20444;-76
2023/12/08 00:49:31;;;;;;;14.80;9.20;;;;;;;;;;5091267;28;20147;-77
2023/12/08 00:51:57;;;;;;;15.18;9.38;;;;;;;;;;5090551;28;20090;-76
2023/12/08 00:54:23;;;;;;;15.57;9.52;;;;;;;;;;5091309;28;20044;-76
2023/12/08 00:56:49;;;;;;;17.98;9.23;;;;;;;;;;5091088;28;20362;-76
2023/12/08 00:59:15;;;;;;;12.77;8.68;;;;;;;;;;5091538;28;20040;-76
2023/12/08 01:01:41;;;;;;;15.77;9.40;;;;;;;;;;5090809;28;20086;-76
2023/12/08 01:04:08;;;;;;;18.20;9.55;;;;;;;;;;5091008;28;20055;-76
2023/12/08 01:06:34;;;;;;;14.05;8.68;;;;;;;;;;5074174;28;20537;-76
2023/12/08 01:09:00;;;;;;;14.02;9.10;;;;;;;;;;5090877;28;20119;-76
2023/12/08 01:11:26;;;;;;;15.23;9.40;;;;;;;;;;5074282;28;20051;-76
2023/12/08 01:13:52;;;;;;;14.27;9.82;;;;;;;;;;5076969;28;20036;-76
2023/12/08 01:16:19;;;;;;;13.50;9.07;;;;;;;;;;5095098;28;20032;-76
2023/12/08 01:18:45;;;;;;;13.02;9.18;;;;;;;;;;5066299;28;20048;-76
2023/12/08 01:21:11;;;;;;;13.35;8.82;;;;;;;;;;5094836;28;20123;-76
2023/12/08 01:23:37;;;;;;;14.75;9.75;;;;;;;;;;5094670;28;20132;-76
2023/12/08 01:26:06;;;;;;;13.80;9.13;;;2.50;99.90;;;;;;5078365;28;20389;-77
2023/12/08 01:28:32;;;;;;;14.07;8.65;;;;;;;;;;5094408;28;20048;-77
2023/12/08 01:30:58;;;;;;;13.70;8.70;;;;;;;;;;5094935;28;20733;-76
2023/12/08 01:33:25;;;;;;;16.35;9.57;;;;;;;;;;5094106;28;20036;-76
2023/12/08 01:35:51;;;;;;;13.60;9.02;;;;;;;;;;5094219;28;20051;-76
2023/12/08 01:38:17;;;;;;;14.32;8.95;;;;;;;;;;5094503;28;20028;-76
2023/12/08 01:40:43;;;;;;;15.98;9.45;;;;;;;;;;5095547;28;20076;-76
2023/12/08 01:43:12;;;;;;;16.92;9.05;;;;;;;;;;5077547;28;20032;-76
2023/12/08 01:45:39;;;;;;;13.93;8.98;;;2.40;99.90;;;;;;5093600;28;20044;-77
2023/12/08 01:48:05;;;;;;;15.63;9.02;;;;;;;;;;5096030;28;20062;-76
2023/12/08 01:50:32;;;;;;;15.35;9.48;;;;;;;;;;5097046;28;20040;-76
2023/12/08 01:52:58;;;;;;;13.88;9.18;;;;;;;;;;5096372;28;20085;-76
2023/12/08 01:55:24;;;;;;;15.23;9.75;;;;;;;;;;5111266;28;20495;-77
2023/12/08 01:57:50;;;;;;;17.20;9.27;;;;;;;;;;5093601;28;20051;-77
2023/12/08 02:00:17;;;;;;;15.85;10.18;;;2.40;99.90;;;;;;5093766;28;20040;-76
2023/12/08 02:02:43;;;;;;;16.02;9.85;;;;;;;;;;5076772;28;20052;-77
2023/12/08 02:05:10;;;;;;;15.30;9.02;;;;;;;;;;5052448;28;20075;-77
2023/12/08 02:07:36;;;;;;;13.50;9.07;;;;;;;;;;5093234;28;20051;-77
2023/12/08 02:10:02;;;;;;;14.57;9.18;;;;;;;;;;5093502;28;20416;-76
2023/12/08 02:12:29;;;;;;;15.57;9.27;;;;;;;;;;5081409;28;20516;-76
2023/12/08 02:14:55;;;;;;;14.05;9.55;;;;;;;;;;5090161;28;20119;-77
2023/12/08 02:17:30;;;;;;;14.35;9.07;;;;;;;;;;5090164;28;20041;-77
2023/12/08 02:19:57;;;;;;;14.70;9.25;;;;;;;;;;5108422;28;20506;-76
2023/12/08 02:22:26;;;;;;;13.48;8.55;;;;;;;;;;5093517;28;20419;-76
2023/12/08 02:24:52;;;;;;;15.95;9.40;;;;;;;;;;5109997;28;20074;-76
2023/12/08 02:27:18;;;;;;;16.45;9.77;;;;;;;;;;5093103;28;20515;-76
2023/12/08 02:29:44;;;;;;;15.63;8.90;;;;;;;;;;5092875;28;20101;-76
2023/12/08 02:32:13;;;;;;;14.40;9.07;;;;;;;;;;5092998;28;20368;-76
2023/12/08 02:34:41;;;;;;;14.93;9.90;;;2.20;99.90;;;;;;5093101;28;20044;-76
2023/12/08 02:37:09;;;;;;;14.55;8.98;;;;;;;;;;5093075;28;20044;-75
2023/12/08 02:39:35;;;;;;;15.88;9.38;;;;;;;;;;5093766;28;20492;-76
2023/12/08 02:42:02;;;;;;;17.08;10.10;;;2.40;99.90;;;;;;5092979;28;20044;-77
2023/12/08 02:44:28;;;;;;;15.95;9.18;;;;;;;;;;5092859;28;20058;-76
2023/12/08 02:46:54;;;;;;;15.82;9.48;;;;;;;;;;5092638;28;20048;-76
2023/12/08 02:49:20;;;;;;;14.60;9.68;;;;;;;;;;5092368;28;20443;-77
2023/12/08 02:51:46;;;;;;;14.73;9.90;;;;;;;;;;5075859;28;20169;-76
2023/12/08 02:54:12;;;;;;;16.52;9.50;;;;;;;;;;5092209;28;20468;-77
2023/12/08 02:56:38;;;;;;;19.00;10.93;;;;;;;;;;5092571;28;20036;-76
2023/12/08 02:59:04;;;;;;;13.88;9.13;;;;;;;;;;5075311;28;20119;-76
2023/12/08 03:01:30;;;;;;;16.33;10.15;;;;;;;;;;5093110;28;20496;-77
2023/12/08 03:03:57;;;;;;;14.32;9.60;;;;;;;;;;5075564;28;20088;-77
2023/12/08 03:06:23;;;;;;;15.27;10.07;;;;;;;;;;5092419;28;20036;-77
2023/12/08 03:08:49;;;;;;;15.43;9.90;;;;;;;;;;5075098;28;20396;-76
2023/12/08 03:11:15;;;;;;;15.25;10.07;;;;;;;;;;5091780;28;20048;-76
2023/12/08 03:13:41;;;;;;;14.25;9.82;;;;;;;;;;5091905;28;20040;-77
2023/12/08 03:16:07;;;;;;;15.00;10.05;;;;;;;;;;5092272;28;20050;-77
2023/12/08 03:18:33;;;;;;;15.27;10.18;;;;;;;;;;5091874;28;20036;-77
2023/12/08 03:20:59;;;;;;;16.38;10.20;;;;;;;;;;5093661;28;20040;-76
2023/12/08 03:23:25;;;;;;;13.38;9.63;;;;;;;;;;5090033;28;20042;-76
2023/12/08 03:25:52;;;;;;;17.75;10.95;;;;;;;;;;5108680;28;20514;-77
2023/12/08 03:28:18;;;;;;;16.90;10.35;;;;;;;;;;5092154;28;20478;-76
2023/12/08 03:30:44;;;;;;;15.40;10.32;;;;;;;;;;5072582;28;20040;-76
2023/12/08 03:33:10;;;;;;;15.45;10.02;;;;;;;;;;5071843;28;20040;-76
2023/12/08 03:35:36;;;;;;;16.35;10.55;;;;;;;;;;5087691;28;20067;-77
2023/12/08 03:38:02;;;;;;;17.70;11.20;;;;;;;;;;5091878;28;20040;-76
2023/12/08 03:40:28;;;;;;;18.15;10.90;;;;;;;;;;5077344;28;20066;-76
2023/12/08 03:42:54;;;;;;;15.98;11.00;;;;;;;;;;5090833;28;20044;-76
2023/12/08 03:45:20;;;;;;;15.93;10.38;;;;;;;;;;5091580;28;20408;-76
2023/12/08 03:47:46;;;;;;;16.65;10.80;;;;;;;;;;5091606;28;20056;-76
2023/12/08 03:50:13;;;;;;;17.23;11.10;;;;;;;;;;5091827;28;20476;-76
2023/12/08 03:52:39;;;;;;;18.67;11.13;;;;;;;;;;5093141;28;20050;-76
2023/12/08 03:55:05;;;;;;;17.50;11.50;;;;;;;;;;5092148;28;20552;-76
2023/12/08 03:57:31;;;;;;;17.95;10.70;;;;;;;;;;5091787;28;20072;-76
2023/12/08 03:59:57;;;;;;;20.52;11.32;;;;;;;;;;5091324;28;20480;-76
2023/12/08 04:02:24;;;;;;;17.67;11.18;;;;;;;;;;5074927;28;20044;-76
2023/12/08 04:04:50;;;;;;;17.23;11.30;;;;;;;;;;5091557;28;20087;-76
2023/12/08 04:07:16;;;;;;;18.95;11.43;;;;;;;;;;5108592;28;20139;-77
2023/12/08 04:09:43;;;;;;;17.63;11.23;;;;;;;;;;5074213;28;20048;-77
2023/12/08 04:12:09;;;;;;;19.23;11.70;;;;;;;;;;5091443;28;20036;-76
2023/12/08 04:14:35;;;;;;;18.52;11.95;;;;;;;;;;5091870;28;20040;-77
2023/12/08 04:17:01;;;;;;;18.13;11.23;;;;;;;;;;5091412;28;20118;-76
2023/12/08 04:19:27;;;;;;;18.65;11.95;;;;;;;;;;5092058;28;20044;-76
2023/12/08 04:21:53;;;;;;;16.05;10.85;;;;;;;;;;5075367;28;20039;-77
2023/12/08 04:24:20;;;;;;;19.08;11.80;;;;;;;;;;5092015;28;20047;-76
2023/12/08 04:26:46;;;;;;;18.70;11.75;;;;;;;;;;5090550;28;20090;-76
2023/12/08 04:29:12;;;;;;;18.60;11.05;;;;;;;;;;5091483;28;20044;-76
2023/12/08 04:31:38;;;;;;;15.93;10.85;;;;;;;;;;5090684;28;20040;-75
2023/12/08 04:34:04;;;;;;;20.25;12.25;;;;;;;;;;5091505;28;20032;-76
2023/12/08 04:36:32;;;;;;;20.40;12.70;;;;;;;;;;5090509;28;20058;-77
2023/12/08 04:38:58;;;;;;;18.00;11.43;;;;;;;;;;5074302;28;20078;-76
2023/12/08 04:41:24;;;;;;;19.55;12.43;;;;;;;;;;5091131;28;20396;-76
2023/12/08 04:43:50;;;;;;;19.95;12.57;;;;;;;;;;5091682;28;20079;-76
2023/12/08 04:46:17;;;;;;;19.77;11.93;;;;;;;;;;5091108;28;20043;-76
2023/12/08 04:48:44;;;;;;;17.73;11.15;;;;;;;;;;5094040;28;20109;-76
2023/12/08 04:51:10;;;;;;;19.92;11.77;;;;;;;;;;5094797;28;20085;-76
2023/12/08 04:53:36;;;;;;;21.13;12.82;;;;;;;;;;5078223;28;20122;-76
2023/12/08 04:56:02;;;;;;;19.25;12.18;;;;;;;;;;5095355;28;20043;-76
2023/12/08 04:58:28;;;;;;;17.42;11.52;;;;;;;;;;5077744;28;20040;-76
2023/12/08 05:00:54;;;;;;;17.27;11.85;;;;;;;;;;5095094;28;20503;-76
2023/12/08 05:03:23;;;;;;;19.98;12.10;;;;;;;;;;5077789;28;20039;-76
2023/12/08 05:05:49;;;;;;;21.70;11.95;;;;;;;;;;5094990;28;20392;-76
2023/12/08 05:08:15;;;;;;;18.08;11.68;;;;;;;;;;5096937;28;20090;-76
2023/12/08 05:10:41;;;;;;;20.33;11.82;;;;;;;;;;5084378;28;20040;-75
2023/12/08 05:13:07;;;;;;;18.38;11.82;;;;;;;;;;5094368;28;20132;-76
2023/12/08 05:15:33;;;;;;;20.05;12.85;;;;;;;;;;5095035;28;20066;-76
2023/12/08 05:17:59;;;;;;;18.63;12.02;;;;;;;;;;5111155;28;20039;-76
2023/12/08 05:20:25;;;;;;;16.65;11.18;;;;;;;;;;5094313;28;20050;-76
2023/12/08 05:22:51;;;;;;;20.38;12.07;;;;;;;;;;5093986;28;20036;-75
2023/12/08 05:25:17;;;;;;;19.52;11.95;;;;;;;;;;5094690;28;20384;-75
2023/12/08 05:27:43;;;;;;;18.05;12.45;;;;;;;;;;5095603;28;20388;-75
2023/12/08 05:30:10;;;;;;;21.10;12.65;;;;;;;;;;5094227;28;20040;-71
2023/12/08 05:32:36;;;;;;;21.40;12.70;;;;;;;;;;5093796;28;20094;-71
2023/12/08 05:35:02;;;;;;;19.05;12.52;;;;;;;;;;5093939;28;20499;-71
2023/12/08 05:37:28;;;;;;;18.50;12.25;;;;;;;;;;5093785;28;20044;-71
2023/12/08 05:39:55;;;;;;;19.50;12.38;;;;;;;;;;5094067;28;20040;-71
2023/12/08 05:42:21;;;;;;;19.15;12.27;;;;;;;;;;5076258;28;20224;-70
2023/12/08 05:44:47;;;;;;;20.02;13.00;;;;;;;;;;5093865;28;20484;-71
2023/12/08 05:47:15;;;;;;;21.60;12.50;;;;;;;;;;5094215;28;20043;-71
2023/12/08 05:49:41;;;;;;;21.90;12.45;;;;;;;;;;5093443;28;20480;-71
2023/12/08 05:52:07;;;;;;;21.63;12.93;;;;;;;;;;5076885;28;20047;-71
2023/12/08 05:54:33;;;;;;;18.98;12.07;;;;;;;;;;5093620;28;20088;-71
2023/12/08 05:56:59;;;;;;;23.60;12.55;;;;;;;;;;5093890;28;20119;-71
2023/12/08 05:59:25;;;;;;;18.35;11.95;;;;;;;;;;5093338;28;20392;-70
2023/12/08 06:01:51;;;;;;;23.15;12.30;;;;;;;;;;5093939;28;20040;-70
2023/12/08 06:04:17;;;;;;;18.17;12.40;;;;;;;;;;5083986;28;20046;-70
2023/12/08 06:06:43;;;;;;;20.30;12.70;;;;;;;;;;5076466;28;20058;-70
2023/12/08 06:09:09;;;;;;;22.48;12.25;;;;;;;;;;5093662;28;20036;-70
2023/12/08 06:11:36;;;;;;;20.17;12.65;;;;;;;;;;5093360;28;20124;-70
2023/12/08 06:14:02;;;;;;;20.40;12.57;;;;;;;;;;5076397;28;20081;-71
2023/12/08 06:16:28;;;;;;;18.63;12.30;;;;;;;;;;5093303;28;20070;-71
2023/12/08 06:18:54;;;;;;;19.58;13.02;;;;;;;;;;5092941;28;20070;-71
2023/12/08 06:21:20;;;;;;;24.80;13.38;;;;;;;;;;5093414;28;20039;-71
2023/12/08 06:23:46;;;;;;;21.75;13.13;;;;;;;;;;5093027;28;20055;-71
2023/12/08 06:26:12;;;;;;;22.77;14.13;;;;;;;;;;5093134;28;20047;-71
2023/12/08 06:28:38;;;;;;;18.35;12.32;;;;;;;;;;5093217;28;20062;-70
2023/12/08 06:31:04;;;;;;;21.05;12.93;;;;;;;;;;5092645;28;20036;-70
2023/12/08 06:33:31;;;;;;;20.45;13.13;;;;;;;;;;5093087;28;20506;-71
2023/12/08 06:35:57;;;;;;;24.08;13.55;;;;;;;;;;5092717;28;20059;-70
2023/12/08 06:38:23;;;;;;;21.10;13.27;;;;;;;;;;5092744;28;20392;-70
2023/12/08 06:40:49;;;;;;;21.67;13.10;;;;;;;;;;5091901;28;20093;-70
2023/12/08 06:43:15;;;;;;;19.65;12.40;;;;;;;;;;5075971;28;20040;-70
2023/12/08 06:45:41;;;;;;;22.98;14.32;;;;;;;;;;5092487;28;20682;-70
2023/12/08 06:48:08;;;;;;;22.23;13.05;;;;;;;;;;5091871;28;20063;-70
2023/12/08 06:50:34;;;;;;;22.52;12.85;;;;;;;;;;5092596;28;20048;-71
2023/12/08 06:53:00;;;;;;;23.77;13.07;;;;;;;;;;5076095;28;20484;-71
2023/12/08 06:55:26;;;;;;;20.52;12.57;;;;;;;;;;5092421;28;20044;-71
2023/12/08 06:57:53;;;;;;;23.40;13.82;;;;;;;;;;5091837;28;20046;-70
2023/12/08 07:00:19;;;;;;;23.45;14.00;;;;;;;;;;5073686;28;20040;-70
2023/12/08 07:02:48;;;;;;;20.58;12.85;;;;;;;;;;5093059;28;20036;-70
2023/12/08 07:05:19;;;;;;;22.67;13.95;;;;;;;;;;5091505;28;20069;-70
2023/12/08 07:07:46;;;;;;;21.40;12.63;;;;;;;;;;5092746;28;20044;-70
2023/12/08 07:10:12;;;;;;;24.55;14.73;;;;;;;;;;5090651;28;20105;-70
2023/12/08 07:12:38;;;;;;;19.52;12.70;;;;;;;;;;5092087;28;20123;-70
2023/12/08 07:15:04;;;;;;;24.20;14.27;;;;;;;;;;5091687;28;20066;-70
2023/12/08 07:17:30;;;;;;;21.75;13.98;;;;;;;;;;5091391;28;20039;-70
2023/12/08 07:19:59;;;;;;;24.15;13.93;;;;;;;;;;5092977;28;20412;-70
2023/12/08 07:22:26;;;;;;;21.73;13.20;;;;;;;;;;5090814;28;20043;-70
2023/12/08 07:24:52;;;;;;;21.60;13.85;;;;;;;;;;5091632;28;20074;-70
2023/12/08 07:27:18;;;;;;;22.67;13.88;;;;;;;;;;5091488;28;20047;-70
2023/12/08 07:29:44;;;;;;;22.17;13.65;;;;;;;;;;5091581;28;20127;-70
2023/12/08 07:32:10;;;;;;;23.45;13.82;;;;;;;;;;5091646;28;20036;-70
2023/12/08 07:34:36;;;;;;;23.08;14.00;;;;;;;;;;5074864;28;20438;-70
2023/12/08 07:37:02;;;;;;;26.17;13.70;;;;;;;;;;5091249;28;20058;-70
2023/12/08 07:39:28;;;;;;;22.67;14.20;;;;;;;;;;5074968;28;20085;-70
2023/12/08 07:41:54;;;;;;;23.33;13.48;;;;;;;;;;5074490;28;20112;-70
2023/12/08 07:44:21;;;;;;;24.73;14.35;;;;;;;;;;5092781;28;20043;-70
2023/12/08 07:46:47;;;;;;;25.70;14.43;;;;;;;;;;5091184;28;20036;-75
2023/12/08 07:49:13;;;;;;;22.00;13.70;;;;;;;;;;5091173;28;20060;-70
2023/12/08 07:51:39;;;;;;;22.48;14.18;;;;;;;;;;5089924;28;20031;-70
2023/12/08 07:54:05;;;;;;;25.48;14.43;;;;;;;;;;5091031;28;20054;-70
2023/12/08 07:56:33;;;;;;;23.65;14.68;;;;;;;;;;5092246;28;20115;-70
2023/12/08 07:58:59;;;;;;;19.83;12.20;;;;;;;;;;5090915;28;20421;-70
2023/12/08 08:01:25;;;;;;;23.60;14.15;;;;;;;;;;5072154;28;20503;-69
2023/12/08 08:03:51;;;;;;;24.55;15.35;;;;;;;;;;5092268;28;20097;-70
2023/12/08 08:06:17;;;;;;;24.80;14.30;;;;;;;;;;5091557;28;20089;-69
2023/12/08 08:08:43;;;;;;;23.45;14.52;;;;;;;;;;5075362;28;20040;-70
2023/12/08 08:11:10;;;;;;;25.13;15.43;;;;;;;;;;5091004;28;20032;-70
2023/12/08 08:13:36;;;;;;;25.45;14.48;;;;;;;;;;5074524;28;20039;-70
2023/12/08 08:16:02;;;;;;;24.20;14.98;;;;;;;;;;5091308;28;20101;-70
2023/12/08 08:18:31;;;;;;;25.50;14.77;;;;;;;;;;5091210;28;20123;-70
2023/12/08 08:20:57;;;;;;;23.88;14.73;;;;;;;;;;5092598;28;20461;-70
2023/12/08 08:23:23;;;;;;;25.23;15.25;;;;;;;;;;5096283;28;20040;-70
2023/12/08 08:25:49;;;;;;;23.40;14.40;;;;;;;;;;5078511;28;20066;-70
2023/12/08 08:28:15;;;;;;;23.70;14.95;;;;;;;;;;5095428;28;20488;-70
2023/12/08 08:30:42;;;;;;;23.90;14.30;;;;;;;;;;5095805;28;20044;-70
2023/12/08 08:33:09;;;;;;;25.45;15.23;;;;;;;;;;5094223;28;20082;-70
2023/12/08 08:35:35;;;;;;;26.10;14.70;;;;;;;;;;5095353;28;20383;-70
2023/12/08 08:38:01;;;;;;;22.33;14.63;;;;;;;;;;5094652;28;20032;-70
2023/12/08 08:40:27;;;;;;;21.20;13.02;;;;;;;;;;5094183;28;20201;-70
2023/12/08 08:42:53;;;;;;;23.98;14.38;;;;;;;;;;5093980;28;20036;-69
2023/12/08 08:45:19;;;;;;;23.77;14.32;;;;;;;;;;5094265;28;20054;-68
2023/12/08 08:47:45;;;;;;;25.83;15.45;;;;;;;;;;5094930;28;20059;-76
2023/12/08 08:50:12;;;;;;;23.70;14.80;;;;;;;;;;5094505;28;20048;-70
2023/12/08 08:52:38;;;;;;;27.92;15.57;;;;;;;;;;5095249;28;20044;-69
2023/12/08 08:55:05;;;;;;;27.98;15.63;;;;;;;;;;5078341;28;20122;-71
2023/12/08 08:57:31;;;;;;;25.30;15.55;;;;;;;;;;5074805;28;20488;-69
2023/12/08 08:59:57;;;;;;;25.30;14.70;;;;;;;;;;5074860;28;20080;-70
2023/12/08 09:02:24;;;;;;;24.27;15.00;;;;;;;;;;5095065;28;20047;-70
2023/12/08 09:04:50;;;;;;;24.48;15.40;;;;;;;;;;5095074;28;20400;-70
2023/12/08 09:07:17;;;;;;;24.83;14.85;;;;;;;;;;5094989;28;20040;-70
2023/12/08 09:09:43;;;;;;;24.52;15.00;;;;;;;;;;5094650;28;20393;-75
2023/12/08 09:12:09;;;;;;;23.20;14.18;;;;;;;;;;5094989;28;20044;-75
2023/12/08 09:14:38;;;;;;;24.42;15.32;;;;;;;;;;5080052;28;20128;-74
2023/12/08 09:17:05;;;;;;;23.70;14.30;;;;;;;;;;5094643;28;20459;-75
2023/12/08 09:19:35;;;;;;;24.80;15.95;;;;;;;;;;5094600;28;20526;-75
2023/12/08 09:22:01;;;;;;;27.45;14.88;;;;;;;;;;5077937;28;20136;-75
2023/12/08 09:24:27;;;;;;;25.27;15.63;;;;;;;;;;5094717;28;20082;-75
2023/12/08 09:26:53;;;;;;;26.60;14.00;;;;;;;;;;5094719;28;20471;-75
2023/12/08 09:29:19;;;;;;;24.77;14.20;;;;;;;;;;5094284;28;20044;-75
2023/12/08 09:31:46;;;;;;;25.48;14.93;;;;;;;;;;5094163;28;20123;-74
2023/12/08 09:34:12;;;;;;;24.63;15.48;;;;;;;;;;5093720;28;20082;-74
2023/12/08 09:36:38;;;;;;;23.75;14.57;;;;;;;;;;5094376;28;20036;-74
2023/12/08 09:39:04;;;;;;;23.48;14.93;;;;;;;;;;5094674;28;20464;-74
2023/12/08 09:41:30;;;;;;;23.25;14.25;;;;;;;;;;5094479;28;20039;-74
2023/12/08 09:44:16;;;;;;;24.63;14.68;;;;;;;;;;5077687;28;20383;-74
2023/12/08 09:46:45;;;;;;;24.75;14.75;;;;;;;;;;5093063;28;20040;-74
2023/12/08 09:49:36;;;;;;;26.33;15.70;;;2.40;99.90;;;;;;5076130;28;20135;-75
2023/12/08 09:52:03;;;;;;;23.90;15.25;;;;;;;;;;5094306;28;20036;-74
2023/12/08 09:54:30;;;;;;;24.17;14.90;;;;;;;;;;5093967;28;20036;-74
2023/12/08 09:56:58;;;;;;;25.63;15.48;;;2.30;99.90;;;;;;5110992;28;20050;-74
2023/12/08 09:59:27;;;;;;;24.65;14.55;;;;;;;;;;5076715;28;20043;-74
2023/12/08 10:01:54;;;;;;;26.05;15.45;;;;;;;;;;5093709;28;20492;-75
2023/12/08 10:04:21;;;;;;;25.17;13.82;;;;;;;;;;5094000;28;20126;-75
2023/12/08 10:06:47;;;;;;;24.15;14.30;;;;;;;;;;5093821;28;20492;-75
2023/12/08 10:09:19;;;;;;;23.10;14.00;;;;;;;;;;5093127;28;20040;-75
2023/12/08 10:11:45;;;;;;;24.42;14.48;;;;;;;;;;5092892;28;20561;-74
2023/12/08 10:14:12;;;;;;;22.98;14.57;;;2.40;99.90;;;;;;5109074;28;20040;-75
2023/12/08 10:16:38;;;;;;;25.10;14.93;;;;;;;;;;5092965;28;20503;-75
2023/12/08 10:19:05;;;;;;;26.88;14.55;;;;;;;;;;5075754;28;20488;-74
2023/12/08 10:21:31;;;;;;;25.23;14.98;;;;;;;;;;5076653;28;20118;-74
2023/12/08 10:24:01;;;;;;;27.70;16.35;;;;;;;;;;5092934;28;20044;-74
2023/12/08 10:26:27;;;;;;;26.80;15.18;;;2.20;99.90;;;;;;5094872;28;20036;-74
2023/12/08 10:28:57;;;;;;;24.75;15.25;;;;;;;;;;5109037;28;20400;-74
2023/12/08 10:31:23;;;;;;;26.85;16.13;;;;;;;;;;5091802;28;20496;-74
2023/12/08 10:33:50;;;;;;;24.05;14.77;;;;;;;;;;5092819;28;20036;-74
2023/12/08 10:36:16;;;;;;;24.33;14.38;;;;;;;;;;5076160;28;20064;-75
2023/12/08 10:38:42;;;;;;;23.48;14.93;;;;;;;;;;5093064;28;20051;-75
2023/12/08 10:41:12;;;;;;;25.35;15.57;;;;;;;;;;5092005;28;20101;-74
2023/12/08 10:43:39;;;;;;;26.92;15.90;;;;;;;;;;5092706;28;20054;-74
2023/12/08 10:46:06;;;;;;;25.63;15.93;;;;;;;;;;5091355;28;20043;-74
2023/12/08 10:48:33;;;;;;;27.02;15.07;;;;;;;;;;5091997;28;20504;-74
2023/12/08 10:50:59;;;;;;;26.50;15.82;;;;;;;;;;5092390;28;20477;-76
2023/12/08 10:53:26;;;;;;;27.13;16.23;;;;;;;;;;5109035;28;20097;-76
2023/12/08 10:55:55;;;;;;;27.40;15.57;;;;;;;;;;5097457;28;20040;-76
2023/12/08 10:58:22;;;;;;;27.63;16.45;;;;;;;;;;5091955;28;20042;-74
2023/12/08 11:00:51;;;;;;;28.33;17.60;;;;;;;;;;5092288;28;20040;-75
2023/12/08 11:03:19;;;;;;;29.77;16.65;;;;;;;;;;5092169;28;20472;-74
2023/12/08 11:05:47;;;;;;;28.15;15.75;;;;;;;;;;5091644;28;20492;-74
2023/12/08 11:08:16;;;;;;;28.77;16.63;;;;;;;;;;5091806;28;20052;-75
2023/12/08 11:10:46;;;;;;;29.15;16.30;;;2.60;99.90;;;;;;5091358;28;20040;-75
2023/12/08 11:13:15;;;;;;;32.03;16.88;;;;;;;;;;5092273;28;20059;-69
2023/12/08 11:15:46;;;;;;;29.52;16.58;;;;;;;;;;5091569;28;20502;-69
2023/12/08 11:18:24;;;;;;;29.05;15.80;;;;;;;;;;5075973;28;20446;-69
2023/12/08 11:20:51;;;;;;;25.08;15.45;;;;;;;;;;5092010;28;20044;-69
2023/12/08 11:23:18;;;;;;;30.20;16.55;;;;;;;;;;5091666;28;20449;-69
2023/12/08 11:25:47;;;;;;;29.65;16.15;;;;;;;;;;5092106;28;20044;-69
2023/12/08 11:28:30;;;;;;;26.02;15.85;;;2.60;99.90;;;;;;5091324;28;20048;-69
2023/12/08 11:30:58;;;;;;;27.63;16.40;;;;;;;;;;5092754;28;20051;-70
2023/12/08 11:33:30;;;;;;;27.77;16.92;;;;;;;;;;5091339;28;20043;-69
2023/12/08 11:36:06;;;;;;;28.90;16.55;;;;;;;;;;5092005;28;20044;-75
2023/12/08 11:38:33;;;;;;;26.13;15.98;;;;;;;;;;5089625;28;20552;-75
2023/12/08 11:40:59;;;;;;;29.42;16.75;;;;;;;;;;5091183;28;20032;-75
2023/12/08 11:43:26;;;;;;;28.60;16.70;;;;;;;;;;5074826;28;20043;-75
2023/12/08 11:45:52;;;;;;;30.38;17.27;;;;;;;;;;5091425;28;20048;-75
2023/12/08 11:48:19;;;;;;;29.98;16.52;;;;;;;;;;5086366;28;20093;-75
2023/12/08 11:50:46;;;;;;;30.38;16.67;;;;;;;;;;5069561;28;20044;-75
2023/12/08 11:53:12;;;;;;;29.75;16.02;;;;;;;;;;5091399;28;20048;-75
2023/12/08 11:55:39;;;;;;;28.48;15.75;;;2.80;99.90;;;;;;5091932;28;20055;-75
2023/12/08 11:58:06;;;;;;;31.30;16.48;;;;;;;;;;5089704;28;20082;-75
2023/12/08 12:00:33;;;;;;;35.63;16.88;;;;;;;;;;5091014;28;20043;-75
2023/12/08 12:02:59;;;;;;;28.00;16.27;;;;;;;;;;5074317;28;20040;-75
2023/12/08 12:05:29;;;;;;;31.17;15.70;;;;;;;;;;5092530;28;20044;-75
2023/12/08 12:07:56;;;;;;;32.78;16.40;;;;;;;;;;5091241;28;20040;-76
2023/12/08 12:10:22;;;;;;;32.78;17.67;;;;;;;;;;5091146;28;20044;-76
2023/12/08 12:12:56;;;;;;;32.45;16.77;;;;;;;;;;5091155;28;20036;-75
2023/12/08 12:15:25;;;;;;;35.85;18.35;;;2.80;99.90;;;;;;5091276;28;20072;-75
2023/12/08 12:17:51;;;;;;;34.25;16.27;;;;;;;;;;5074124;28;20148;-75
2023/12/08 12:20:18;;;;;;;31.77;16.45;;;;;;;;;;5091057;28;20043;-75
2023/12/08 12:22:44;;;;;;;34.13;16.65;;;;;;;;;;5090734;28;20233;-75
2023/12/08 12:25:10;;;;;;;33.10;17.15;;;;;;;;;;5091324;28;20129;-76
2023/12/08 12:27:44;;;;;;;34.67;17.05;;;;;;;;;;5074613;28;20044;-75
2023/12/08 12:30:11;;;;;;;32.10;17.00;;;;;;;;;;5091043;28;20044;-76
2023/12/08 12:32:37;;;;;;;30.65;16.27;;;;;;;;;;5091295;28;20036;-75
2023/12/08 12:35:04;;;;;;;32.10;16.77;;;;;;;;;;5092493;28;20032;-75
2023/12/08 12:37:30;;;;;;;35.67;17.80;;;;;;;;;;5090819;28;20032;-75
2023/12/08 12:39:59;;;;;;;35.35;18.30;;;;;;;;;;5092553;28;20040;-75
2023/12/08 12:42:25;;;;;;;34.50;17.10;;;;;;;;;;5091220;28;20056;-76
2023/12/08 12:44:52;;;;;;;31.50;17.02;;;;;;;;;;5090955;28;20047;-75
2023/12/08 12:47:22;;;;;;;30.70;16.50;;;;;;;;;;5091102;28;20105;-75
2023/12/08 12:50:04;;;;;;;31.13;15.60;;;;;;;;;;5090707;28;20110;-75
2023/12/08 12:52:31;;;;;;;28.40;15.85;;;;;;;;;;5090734;28;20028;-75
2023/12/08 12:54:57;;;;;;;35.38;17.23;;;;;;;;;;5091263;28;20047;-75
2023/12/08 12:57:44;;;;;;;33.08;16.77;;;;;;;;;;5091047;28;20089;-75
2023/12/08 13:00:12;;;;;;;34.75;16.45;;;3.20;99.90;;;;;;5090824;28;20117;-75
2023/12/08 13:02:38;;;;;;;34.40;15.57;;;;;;;;;;5091191;28;20511;-75
2023/12/08 13:05:07;;;;;;;33.55;16.25;;;;;;;;;;5091161;28;20048;-76
2023/12/08 13:07:33;;;;;;;29.70;15.95;;;;;;;;;;5092283;28;20107;-75
2023/12/08 13:09:59;;;;;;;30.15;15.23;;;;;;;;;;5085101;28;20044;-75
2023/12/08 13:12:25;;;;;;;31.08;16.50;;;;;;;;;;5092226;28;20032;-75
2023/12/08 13:14:52;;;;;;;26.98;16.08;;;;;;;;;;5094627;28;20040;-75
2023/12/08 13:17:19;;;;;;;31.27;16.88;;;;;;;;;;5094450;28;20072;-75
2023/12/08 13:19:46;;;;;;;30.15;15.13;;;;;;;;;;5094050;28;20054;-75
2023/12/08 13:22:12;;;;;;;31.05;15.27;;;;;;;;;;5077661;28;20454;-75
2023/12/08 13:24:38;;;;;;;30.98;16.65;;;;;;;;;;5079563;28;20039;-75
2023/12/08 13:27:05;;;;;;;30.60;17.35;;;;;;;;;;5094849;28;20515;-75
2023/12/08 13:29:31;;;;;;;30.08;15.93;;;;;;;;;;5093914;28;20051;-75
2023/12/08 13:31:57;;;;;;;29.65;15.70;;;;;;;;;;5094254;28;20044;-75
2023/12/08 13:34:25;;;;;;;34.75;16.23;;;;;;;;;;5093528;28;20048;-75
2023/12/08 13:36:51;;;;;;;28.77;15.55;;;;;;;;;;5093867;28;20035;-75
2023/12/08 13:39:17;;;;;;;29.50;15.50;;;;;;;;;;5093968;28;20716;-75
2023/12/08 13:41:43;;;;;;;33.75;16.70;;;;;;;;;;5093702;28;20089;-76
2023/12/08 13:44:09;;;;;;;31.38;16.17;;;;;;;;;;5093634;28;20563;-75
2023/12/08 13:46:36;;;;;;;35.10;17.23;;;;;;;;;;5093570;28;20402;-75
2023/12/08 13:49:02;;;;;;;30.20;15.15;;;;;;;;;;5093495;28;20048;-75
2023/12/08 13:51:31;;;;;;;33.80;16.73;;;;;;;;;;5093737;28;20059;-75
2023/12/08 13:53:57;;;;;;;33.22;15.73;;;;;;;;;;5094301;28;20052;-75
2023/12/08 13:56:23;;;;;;;29.13;15.60;;;;;;;;;;5103609;28;20090;-75
2023/12/08 13:58:49;;;;;;;28.40;14.85;;;;;;;;;;5093590;28;20515;-75
2023/12/08 14:01:16;;;;;;;33.60;16.17;;;;;;;;;;5093725;28;20127;-75
2023/12/08 14:03:42;;;;;;;37.25;15.27;;;;;;;;;;5093635;28;20032;-76
2023/12/08 14:06:08;;;;;;;28.95;15.60;;;;;;;;;;5093147;28;20040;-75
2023/12/08 14:08:34;;;;;;;34.78;15.55;;;;;;;;;;5093470;28;20165;-76
2023/12/08 14:11:00;;;;;;;29.38;16.08;;;;;;;;;;5093014;28;20063;-75